sensor_id;sensor_type;location;lat;lon;timestamp;P1;durP1;ratioP1;P2;durP2;ratioP2
42192;SDS011;52467;40.114;18.306;2023-04-03T00:01:07;14.25;;;5.10;;
42192;SDS011;52467;40.114;18.306;2023-04-03T00:03:34;22.63;;;5.13;;
42192;SDS011;52467;40.114;18.306;2023-04-03T00:06:03;22.88;;;5.32;;
42192;SDS011;52467;40.114;18.306;2023-04-03T00:08:33;21.00;;;5.68;;
42192;SDS011;52467;40.114;18.306;2023-04-03T00:11:02;21.13;;;5.03;;
42192;SDS011;52467;40.114;18.306;2023-04-03T00:13:30;17.93;;;4.80;;
42192;SDS011;52467;40.114;18.306;2023-04-03T00:15:58;20.95;;;4.93;;
42192;SDS011;52467;40.114;18.306;2023-04-03T00:18:25;16.73;;;5.07;;
42192;SDS011;52467;40.114;18.306;2023-04-03T00:20:53;15.93;;;4.45;;
42192;SDS011;52467;40.114;18.306;2023-04-03T00:23:20;19.98;;;4.75;;
42192;SDS011;52467;40.114;18.306;2023-04-03T00:28:06;16.23;;;4.43;;
42192;SDS011;52467;40.114;18.306;2023-04-03T00:30:34;24.52;;;5.30;;
42192;SDS011;52467;40.114;18.306;2023-04-03T00:33:01;17.92;;;5.80;;
42192;SDS011;52467;40.114;18.306;2023-04-03T00:35:29;14.52;;;5.20;;
42192;SDS011;52467;40.114;18.306;2023-04-03T00:37:57;18.70;;;5.50;;
42192;SDS011;52467;40.114;18.306;2023-04-03T00:40:25;19.27;;;5.07;;
42192;SDS011;52467;40.114;18.306;2023-04-03T00:42:57;22.33;;;4.97;;
42192;SDS011;52467;40.114;18.306;2023-04-03T00:45:27;14.98;;;4.85;;
42192;SDS011;52467;40.114;18.306;2023-04-03T00:47:55;18.20;;;5.18;;
42192;SDS011;52467;40.114;18.306;2023-04-03T00:50:23;20.67;;;5.05;;
42192;SDS011;52467;40.114;18.306;2023-04-03T00:52:51;24.63;;;5.13;;
42192;SDS011;52467;40.114;18.306;2023-04-03T00:55:18;22.97;;;5.27;;
42192;SDS011;52467;40.114;18.306;2023-04-03T00:57:47;18.40;;;5.37;;
42192;SDS011;52467;40.114;18.306;2023-04-03T01:00:16;19.50;;;5.22;;
42192;SDS011;52467;40.114;18.306;2023-04-03T01:02:46;19.25;;;5.40;;
42192;SDS011;52467;40.114;18.306;2023-04-03T01:05:14;17.75;;;4.78;;
42192;SDS011;52467;40.114;18.306;2023-04-03T01:07:43;28.17;;;5.78;;
42192;SDS011;52467;40.114;18.306;2023-04-03T01:10:12;18.00;;;5.05;;
42192;SDS011;52467;40.114;18.306;2023-04-03T01:12:43;19.63;;;5.23;;
42192;SDS011;52467;40.114;18.306;2023-04-03T01:15:14;14.85;;;5.05;;
42192;SDS011;52467;40.114;18.306;2023-04-03T01:17:50;13.60;;;4.60;;
42192;SDS011;52467;40.114;18.306;2023-04-03T01:20:36;21.50;;;5.03;;
42192;SDS011;52467;40.114;18.306;2023-04-03T01:23:20;14.95;;;4.90;;
42192;SDS011;52467;40.114;18.306;2023-04-03T01:26:11;15.65;;;4.78;;
42192;SDS011;52467;40.114;18.306;2023-04-03T01:28:39;17.17;;;4.65;;
42192;SDS011;52467;40.114;18.306;2023-04-03T01:33:44;15.57;;;4.53;;
42192;SDS011;52467;40.114;18.306;2023-04-03T01:36:26;15.98;;;3.97;;
42192;SDS011;52467;40.114;18.306;2023-04-03T01:38:55;16.70;;;4.55;;
42192;SDS011;52467;40.114;18.306;2023-04-03T01:41:25;15.73;;;4.87;;
42192;SDS011;52467;40.114;18.306;2023-04-03T01:43:59;18.38;;;3.85;;
42192;SDS011;52467;40.114;18.306;2023-04-03T01:46:26;17.15;;;4.50;;
42192;SDS011;52467;40.114;18.306;2023-04-03T01:48:53;18.45;;;4.63;;
42192;SDS011;52467;40.114;18.306;2023-04-03T01:51:21;20.67;;;4.30;;
42192;SDS011;52467;40.114;18.306;2023-04-03T01:53:49;19.58;;;4.28;;
42192;SDS011;52467;40.114;18.306;2023-04-03T01:56:16;23.90;;;4.55;;
42192;SDS011;52467;40.114;18.306;2023-04-03T01:58:44;17.73;;;4.22;;
42192;SDS011;52467;40.114;18.306;2023-04-03T02:01:11;19.08;;;4.05;;
42192;SDS011;52467;40.114;18.306;2023-04-03T02:03:39;25.30;;;4.63;;
42192;SDS011;52467;40.114;18.306;2023-04-03T02:06:06;21.05;;;3.83;;
42192;SDS011;52467;40.114;18.306;2023-04-03T02:08:34;18.45;;;4.05;;
42192;SDS011;52467;40.114;18.306;2023-04-03T02:11:01;16.42;;;3.95;;
42192;SDS011;52467;40.114;18.306;2023-04-03T02:13:29;14.80;;;3.72;;
42192;SDS011;52467;40.114;18.306;2023-04-03T02:15:56;17.33;;;3.60;;
42192;SDS011;52467;40.114;18.306;2023-04-03T02:18:24;20.85;;;3.53;;
42192;SDS011;52467;40.114;18.306;2023-04-03T02:20:51;15.15;;;3.13;;
42192;SDS011;52467;40.114;18.306;2023-04-03T02:23:20;12.82;;;3.50;;
42192;SDS011;52467;40.114;18.306;2023-04-03T02:25:47;21.75;;;3.35;;
42192;SDS011;52467;40.114;18.306;2023-04-03T02:28:16;17.55;;;3.42;;
42192;SDS011;52467;40.114;18.306;2023-04-03T02:30:43;20.25;;;3.22;;
42192;SDS011;52467;40.114;18.306;2023-04-03T02:33:10;15.90;;;3.63;;
42192;SDS011;52467;40.114;18.306;2023-04-03T02:35:38;16.83;;;3.70;;
42192;SDS011;52467;40.114;18.306;2023-04-03T02:38:06;21.92;;;3.55;;
42192;SDS011;52467;40.114;18.306;2023-04-03T02:40:34;14.52;;;3.03;;
42192;SDS011;52467;40.114;18.306;2023-04-03T02:43:01;18.33;;;3.97;;
42192;SDS011;52467;40.114;18.306;2023-04-03T02:45:30;14.20;;;2.97;;
42192;SDS011;52467;40.114;18.306;2023-04-03T02:47:58;15.85;;;2.72;;
42192;SDS011;52467;40.114;18.306;2023-04-03T02:50:25;16.00;;;2.80;;
42192;SDS011;52467;40.114;18.306;2023-04-03T02:52:52;16.02;;;3.20;;
42192;SDS011;52467;40.114;18.306;2023-04-03T02:55:20;18.15;;;3.03;;
42192;SDS011;52467;40.114;18.306;2023-04-03T02:57:50;19.98;;;2.92;;
42192;SDS011;52467;40.114;18.306;2023-04-03T03:00:17;16.88;;;2.83;;
42192;SDS011;52467;40.114;18.306;2023-04-03T03:02:45;18.27;;;3.28;;
42192;SDS011;52467;40.114;18.306;2023-04-03T03:05:12;12.63;;;2.97;;
42192;SDS011;52467;40.114;18.306;2023-04-03T03:07:40;17.90;;;2.80;;
42192;SDS011;52467;40.114;18.306;2023-04-03T03:10:07;19.15;;;3.15;;
42192;SDS011;52467;40.114;18.306;2023-04-03T03:12:35;13.70;;;2.67;;
42192;SDS011;52467;40.114;18.306;2023-04-03T03:15:02;16.80;;;3.60;;
42192;SDS011;52467;40.114;18.306;2023-04-03T03:17:30;13.40;;;2.87;;
42192;SDS011;52467;40.114;18.306;2023-04-03T03:19:57;21.55;;;3.70;;
42192;SDS011;52467;40.114;18.306;2023-04-03T03:22:26;18.48;;;3.38;;
42192;SDS011;52467;40.114;18.306;2023-04-03T03:24:55;19.10;;;2.80;;
42192;SDS011;52467;40.114;18.306;2023-04-03T03:27:22;13.98;;;2.45;;
42192;SDS011;52467;40.114;18.306;2023-04-03T03:29:50;13.73;;;2.45;;
42192;SDS011;52467;40.114;18.306;2023-04-03T03:32:19;17.45;;;2.78;;
42192;SDS011;52467;40.114;18.306;2023-04-03T03:34:47;26.67;;;3.67;;
42192;SDS011;52467;40.114;18.306;2023-04-03T03:37:14;26.83;;;3.47;;
42192;SDS011;52467;40.114;18.306;2023-04-03T03:39:42;22.57;;;3.33;;
42192;SDS011;52467;40.114;18.306;2023-04-03T03:42:09;19.60;;;3.33;;
42192;SDS011;52467;40.114;18.306;2023-04-03T03:44:36;13.23;;;2.70;;
42192;SDS011;52467;40.114;18.306;2023-04-03T03:47:04;18.85;;;2.80;;
42192;SDS011;52467;40.114;18.306;2023-04-03T03:49:32;20.10;;;3.47;;
42192;SDS011;52467;40.114;18.306;2023-04-03T03:52:00;16.63;;;2.88;;
42192;SDS011;52467;40.114;18.306;2023-04-03T03:54:27;12.85;;;2.58;;
42192;SDS011;52467;40.114;18.306;2023-04-03T03:56:55;21.00;;;3.67;;
42192;SDS011;52467;40.114;18.306;2023-04-03T03:59:24;18.10;;;3.30;;
42192;SDS011;52467;40.114;18.306;2023-04-03T04:01:51;12.68;;;2.40;;
42192;SDS011;52467;40.114;18.306;2023-04-03T04:04:19;17.83;;;2.67;;
42192;SDS011;52467;40.114;18.306;2023-04-03T04:06:48;12.95;;;2.40;;
42192;SDS011;52467;40.114;18.306;2023-04-03T04:09:15;18.80;;;3.40;;
42192;SDS011;52467;40.114;18.306;2023-04-03T04:11:42;14.82;;;2.70;;
42192;SDS011;52467;40.114;18.306;2023-04-03T04:14:11;14.23;;;3.45;;
42192;SDS011;52467;40.114;18.306;2023-04-03T04:16:41;18.75;;;3.90;;
42192;SDS011;52467;40.114;18.306;2023-04-03T04:19:14;13.43;;;2.90;;
42192;SDS011;52467;40.114;18.306;2023-04-03T04:21:43;13.05;;;2.72;;
42192;SDS011;52467;40.114;18.306;2023-04-03T04:24:11;12.57;;;2.80;;
42192;SDS011;52467;40.114;18.306;2023-04-03T04:26:39;10.95;;;2.63;;
42192;SDS011;52467;40.114;18.306;2023-04-03T04:29:10;13.70;;;2.92;;
42192;SDS011;52467;40.114;18.306;2023-04-03T04:31:37;14.02;;;2.92;;
42192;SDS011;52467;40.114;18.306;2023-04-03T04:34:09;14.90;;;2.45;;
42192;SDS011;52467;40.114;18.306;2023-04-03T04:36:37;12.32;;;2.92;;
42192;SDS011;52467;40.114;18.306;2023-04-03T04:39:05;12.07;;;3.13;;
42192;SDS011;52467;40.114;18.306;2023-04-03T04:41:33;13.13;;;3.17;;
42192;SDS011;52467;40.114;18.306;2023-04-03T04:44:02;20.20;;;3.33;;
42192;SDS011;52467;40.114;18.306;2023-04-03T04:46:30;21.33;;;3.40;;
42192;SDS011;52467;40.114;18.306;2023-04-03T04:48:59;17.27;;;3.10;;
42192;SDS011;52467;40.114;18.306;2023-04-03T04:51:28;11.30;;;3.35;;
42192;SDS011;52467;40.114;18.306;2023-04-03T04:53:59;12.00;;;2.87;;
42192;SDS011;52467;40.114;18.306;2023-04-03T04:56:26;16.58;;;3.22;;
42192;SDS011;52467;40.114;18.306;2023-04-03T04:58:55;15.40;;;3.10;;
42192;SDS011;52467;40.114;18.306;2023-04-03T05:01:24;17.17;;;3.33;;
42192;SDS011;52467;40.114;18.306;2023-04-03T05:04:02;14.70;;;3.10;;
42192;SDS011;52467;40.114;18.306;2023-04-03T05:06:29;17.77;;;3.80;;
42192;SDS011;52467;40.114;18.306;2023-04-03T05:09:00;18.92;;;3.30;;
42192;SDS011;52467;40.114;18.306;2023-04-03T05:11:29;16.00;;;3.25;;
42192;SDS011;52467;40.114;18.306;2023-04-03T05:13:56;16.75;;;3.80;;
42192;SDS011;52467;40.114;18.306;2023-04-03T05:16:25;17.50;;;3.67;;
42192;SDS011;52467;40.114;18.306;2023-04-03T05:18:55;20.38;;;4.00;;
42192;SDS011;52467;40.114;18.306;2023-04-03T05:21:22;10.35;;;3.60;;
42192;SDS011;52467;40.114;18.306;2023-04-03T05:23:52;22.35;;;3.60;;
42192;SDS011;52467;40.114;18.306;2023-04-03T05:26:20;14.88;;;3.20;;
42192;SDS011;52467;40.114;18.306;2023-04-03T05:28:50;14.02;;;3.13;;
42192;SDS011;52467;40.114;18.306;2023-04-03T05:31:18;18.92;;;3.85;;
42192;SDS011;52467;40.114;18.306;2023-04-03T05:33:47;19.98;;;4.10;;
42192;SDS011;52467;40.114;18.306;2023-04-03T05:36:17;18.85;;;3.55;;
42192;SDS011;52467;40.114;18.306;2023-04-03T05:38:48;16.08;;;3.55;;
42192;SDS011;52467;40.114;18.306;2023-04-03T05:41:16;19.38;;;4.13;;
42192;SDS011;52467;40.114;18.306;2023-04-03T05:43:45;12.50;;;3.40;;
42192;SDS011;52467;40.114;18.306;2023-04-03T05:46:14;15.85;;;4.07;;
42192;SDS011;52467;40.114;18.306;2023-04-03T05:48:46;18.70;;;4.07;;
42192;SDS011;52467;40.114;18.306;2023-04-03T05:51:24;17.38;;;4.45;;
42192;SDS011;52467;40.114;18.306;2023-04-03T05:54:06;18.48;;;4.65;;
42192;SDS011;52467;40.114;18.306;2023-04-03T05:57:15;16.77;;;3.70;;
42192;SDS011;52467;40.114;18.306;2023-04-03T05:59:43;18.10;;;3.97;;
42192;SDS011;52467;40.114;18.306;2023-04-03T06:02:12;18.20;;;4.72;;
42192;SDS011;52467;40.114;18.306;2023-04-03T06:04:45;24.60;;;4.70;;
42192;SDS011;52467;40.114;18.306;2023-04-03T06:07:15;20.15;;;4.10;;
42192;SDS011;52467;40.114;18.306;2023-04-03T06:09:44;16.10;;;4.78;;
42192;SDS011;52467;40.114;18.306;2023-04-03T06:12:11;16.27;;;4.47;;
42192;SDS011;52467;40.114;18.306;2023-04-03T06:14:39;15.60;;;3.97;;
42192;SDS011;52467;40.114;18.306;2023-04-03T06:17:07;22.88;;;4.70;;
42192;SDS011;52467;40.114;18.306;2023-04-03T06:19:36;19.05;;;4.85;;
42192;SDS011;52467;40.114;18.306;2023-04-03T06:22:03;19.15;;;5.07;;
42192;SDS011;52467;40.114;18.306;2023-04-03T06:24:31;23.70;;;5.60;;
42192;SDS011;52467;40.114;18.306;2023-04-03T06:26:59;17.50;;;4.38;;
42192;SDS011;52467;40.114;18.306;2023-04-03T06:29:27;15.93;;;3.63;;
42192;SDS011;52467;40.114;18.306;2023-04-03T06:31:54;18.92;;;4.22;;
42192;SDS011;52467;40.114;18.306;2023-04-03T06:34:22;22.35;;;4.18;;
42192;SDS011;52467;40.114;18.306;2023-04-03T06:36:49;18.27;;;4.20;;
42192;SDS011;52467;40.114;18.306;2023-04-03T06:39:18;14.65;;;4.15;;
42192;SDS011;52467;40.114;18.306;2023-04-03T06:41:50;19.75;;;4.07;;
42192;SDS011;52467;40.114;18.306;2023-04-03T06:44:25;16.73;;;4.68;;
42192;SDS011;52467;40.114;18.306;2023-04-03T06:46:52;17.77;;;4.50;;
42192;SDS011;52467;40.114;18.306;2023-04-03T06:49:20;14.83;;;4.17;;
42192;SDS011;52467;40.114;18.306;2023-04-03T06:51:48;12.32;;;3.50;;
42192;SDS011;52467;40.114;18.306;2023-04-03T06:54:15;20.23;;;4.10;;
42192;SDS011;52467;40.114;18.306;2023-04-03T06:56:42;16.75;;;3.83;;
42192;SDS011;52467;40.114;18.306;2023-04-03T06:59:11;23.58;;;4.03;;
42192;SDS011;52467;40.114;18.306;2023-04-03T07:01:40;8.97;;;3.67;;
42192;SDS011;52467;40.114;18.306;2023-04-03T07:04:08;14.20;;;3.53;;
42192;SDS011;52467;40.114;18.306;2023-04-03T07:06:37;19.63;;;3.33;;
42192;SDS011;52467;40.114;18.306;2023-04-03T07:09:04;12.02;;;3.63;;
42192;SDS011;52467;40.114;18.306;2023-04-03T07:11:32;20.92;;;4.25;;
42192;SDS011;52467;40.114;18.306;2023-04-03T07:13:59;16.77;;;3.53;;
42192;SDS011;52467;40.114;18.306;2023-04-03T07:16:26;17.70;;;3.70;;
42192;SDS011;52467;40.114;18.306;2023-04-03T07:18:54;10.82;;;3.08;;
42192;SDS011;52467;40.114;18.306;2023-04-03T07:21:21;12.02;;;3.08;;
42192;SDS011;52467;40.114;18.306;2023-04-03T07:23:48;11.50;;;2.87;;
42192;SDS011;52467;40.114;18.306;2023-04-03T07:26:16;12.05;;;2.78;;
42192;SDS011;52467;40.114;18.306;2023-04-03T07:28:44;13.13;;;3.20;;
42192;SDS011;52467;40.114;18.306;2023-04-03T07:31:16;16.08;;;3.28;;
42192;SDS011;52467;40.114;18.306;2023-04-03T07:33:45;9.85;;;2.72;;
42192;SDS011;52467;40.114;18.306;2023-04-03T07:36:17;8.68;;;2.55;;
42192;SDS011;52467;40.114;18.306;2023-04-03T07:38:46;9.07;;;2.20;;
42192;SDS011;52467;40.114;18.306;2023-04-03T07:41:17;15.75;;;2.50;;
42192;SDS011;52467;40.114;18.306;2023-04-03T07:43:46;10.68;;;3.03;;
42192;SDS011;52467;40.114;18.306;2023-04-03T07:46:16;5.63;;;1.80;;
42192;SDS011;52467;40.114;18.306;2023-04-03T07:48:44;12.00;;;2.33;;
42192;SDS011;52467;40.114;18.306;2023-04-03T07:51:11;7.87;;;2.10;;
42192;SDS011;52467;40.114;18.306;2023-04-03T07:53:39;11.40;;;2.33;;
42192;SDS011;52467;40.114;18.306;2023-04-03T07:56:07;11.27;;;2.40;;
42192;SDS011;52467;40.114;18.306;2023-04-03T07:58:35;9.50;;;2.55;;
42192;SDS011;52467;40.114;18.306;2023-04-03T08:01:02;13.38;;;2.30;;
42192;SDS011;52467;40.114;18.306;2023-04-03T08:03:30;10.00;;;2.10;;
42192;SDS011;52467;40.114;18.306;2023-04-03T08:06:01;7.78;;;2.13;;
42192;SDS011;52467;40.114;18.306;2023-04-03T08:08:31;14.57;;;2.55;;
42192;SDS011;52467;40.114;18.306;2023-04-03T08:10:59;8.73;;;1.80;;
42192;SDS011;52467;40.114;18.306;2023-04-03T08:13:29;10.38;;;2.55;;
42192;SDS011;52467;40.114;18.306;2023-04-03T08:15:57;13.77;;;2.00;;
42192;SDS011;52467;40.114;18.306;2023-04-03T08:18:25;9.07;;;1.80;;
42192;SDS011;52467;40.114;18.306;2023-04-03T08:20:53;14.32;;;2.20;;
42192;SDS011;52467;40.114;18.306;2023-04-03T08:23:20;6.43;;;1.95;;
42192;SDS011;52467;40.114;18.306;2023-04-03T08:25:47;9.27;;;2.30;;
42192;SDS011;52467;40.114;18.306;2023-04-03T08:28:15;12.15;;;2.40;;
42192;SDS011;52467;40.114;18.306;2023-04-03T08:30:42;15.48;;;2.75;;
42192;SDS011;52467;40.114;18.306;2023-04-03T08:33:12;8.57;;;1.85;;
42192;SDS011;52467;40.114;18.306;2023-04-03T08:35:40;7.82;;;2.47;;
42192;SDS011;52467;40.114;18.306;2023-04-03T08:38:08;10.10;;;2.97;;
42192;SDS011;52467;40.114;18.306;2023-04-03T08:40:36;10.50;;;2.90;;
42192;SDS011;52467;40.114;18.306;2023-04-03T08:43:11;11.95;;;3.22;;
42192;SDS011;52467;40.114;18.306;2023-04-03T08:45:53;13.80;;;3.30;;
42192;SDS011;52467;40.114;18.306;2023-04-03T08:48:29;10.30;;;3.00;;
42192;SDS011;52467;40.114;18.306;2023-04-03T08:51:00;7.30;;;2.10;;
42192;SDS011;52467;40.114;18.306;2023-04-03T08:53:34;11.30;;;3.10;;
42192;SDS011;52467;40.114;18.306;2023-04-03T08:56:08;9.95;;;2.28;;
42192;SDS011;52467;40.114;18.306;2023-04-03T08:58:45;12.23;;;2.57;;
42192;SDS011;52467;40.114;18.306;2023-04-03T09:01:20;9.00;;;2.30;;
42192;SDS011;52467;40.114;18.306;2023-04-03T09:03:51;10.13;;;2.23;;
42192;SDS011;52467;40.114;18.306;2023-04-03T09:06:31;10.75;;;2.45;;
42192;SDS011;52467;40.114;18.306;2023-04-03T09:09:13;13.48;;;2.00;;
42192;SDS011;52467;40.114;18.306;2023-04-03T09:14:39;13.45;;;2.40;;
42192;SDS011;52467;40.114;18.306;2023-04-03T09:25:48;10.82;;;1.83;;
42192;SDS011;52467;40.114;18.306;2023-04-03T09:28:17;15.40;;;1.58;;
42192;SDS011;52467;40.114;18.306;2023-04-03T09:30:44;5.55;;;1.90;;
42192;SDS011;52467;40.114;18.306;2023-04-03T09:33:11;9.15;;;2.45;;
42192;SDS011;52467;40.114;18.306;2023-04-03T09:35:40;5.50;;;1.63;;
42192;SDS011;52467;40.114;18.306;2023-04-03T09:38:17;4.88;;;1.65;;
42192;SDS011;52467;40.114;18.306;2023-04-03T09:40:47;7.78;;;1.75;;
42192;SDS011;52467;40.114;18.306;2023-04-03T09:43:27;6.75;;;1.60;;
42192;SDS011;52467;40.114;18.306;2023-04-03T09:45:56;4.53;;;1.60;;
42192;SDS011;52467;40.114;18.306;2023-04-03T09:48:58;9.57;;;2.13;;
42192;SDS011;52467;40.114;18.306;2023-04-03T09:51:33;4.93;;;1.40;;
42192;SDS011;52467;40.114;18.306;2023-04-03T09:54:00;7.35;;;1.52;;
42192;SDS011;52467;40.114;18.306;2023-04-03T09:57:00;3.87;;;1.40;;
42192;SDS011;52467;40.114;18.306;2023-04-03T09:59:31;9.93;;;1.40;;
42192;SDS011;52467;40.114;18.306;2023-04-03T10:02:03;6.78;;;1.48;;
42192;SDS011;52467;40.114;18.306;2023-04-03T10:04:50;4.30;;;1.58;;
42192;SDS011;52467;40.114;18.306;2023-04-03T10:07:42;7.53;;;1.48;;
42192;SDS011;52467;40.114;18.306;2023-04-03T10:12:46;8.13;;;1.50;;
42192;SDS011;52467;40.114;18.306;2023-04-03T10:15:14;8.77;;;1.67;;
42192;SDS011;52467;40.114;18.306;2023-04-03T10:23:24;4.83;;;1.17;;
42192;SDS011;52467;40.114;18.306;2023-04-03T10:31:49;7.75;;;1.40;;
42192;SDS011;52467;40.114;18.306;2023-04-03T10:45:18;9.00;;;1.45;;
42192;SDS011;52467;40.114;18.306;2023-04-03T10:48:07;12.82;;;1.80;;
42192;SDS011;52467;40.114;18.306;2023-04-03T10:56:04;7.05;;;1.13;;
42192;SDS011;52467;40.114;18.306;2023-04-03T10:58:57;5.60;;;1.67;;
42192;SDS011;52467;40.114;18.306;2023-04-03T11:01:33;10.57;;;1.67;;
42192;SDS011;52467;40.114;18.306;2023-04-03T11:04:04;9.35;;;1.70;;
42192;SDS011;52467;40.114;18.306;2023-04-03T11:06:34;9.73;;;0.90;;
42192;SDS011;52467;40.114;18.306;2023-04-03T11:09:07;6.53;;;1.10;;
42192;SDS011;52467;40.114;18.306;2023-04-03T11:11:48;4.40;;;1.00;;
42192;SDS011;52467;40.114;18.306;2023-04-03T11:22:57;5.05;;;1.00;;
42192;SDS011;52467;40.114;18.306;2023-04-03T11:25:43;5.90;;;0.80;;
42192;SDS011;52467;40.114;18.306;2023-04-03T11:28:12;3.50;;;0.93;;
42192;SDS011;52467;40.114;18.306;2023-04-03T11:36:19;2.78;;;1.00;;
42192;SDS011;52467;40.114;18.306;2023-04-03T11:38:55;8.40;;;1.50;;
42192;SDS011;52467;40.114;18.306;2023-04-03T11:41:28;6.80;;;1.23;;
42192;SDS011;52467;40.114;18.306;2023-04-03T11:46:48;5.75;;;1.40;;
42192;SDS011;52467;40.114;18.306;2023-04-03T11:55:53;4.82;;;1.30;;
42192;SDS011;52467;40.114;18.306;2023-04-03T12:05:56;4.55;;;1.00;;
42192;SDS011;52467;40.114;18.306;2023-04-03T12:08:50;5.95;;;1.08;;
42192;SDS011;52467;40.114;18.306;2023-04-03T12:16:33;4.35;;;1.10;;
42192;SDS011;52467;40.114;18.306;2023-04-03T12:26:44;4.85;;;1.13;;
42192;SDS011;52467;40.114;18.306;2023-04-03T12:32:05;9.23;;;1.50;;
42192;SDS011;52467;40.114;18.306;2023-04-03T12:37:49;7.10;;;1.43;;
42192;SDS011;52467;40.114;18.306;2023-04-03T12:48:38;3.03;;;0.95;;
42192;SDS011;52467;40.114;18.306;2023-04-03T12:51:18;4.50;;;1.37;;
42192;SDS011;52467;40.114;18.306;2023-04-03T12:54:00;7.05;;;1.65;;
42192;SDS011;52467;40.114;18.306;2023-04-03T12:56:31;7.37;;;1.93;;
42192;SDS011;52467;40.114;18.306;2023-04-03T12:59:23;7.97;;;2.22;;
42192;SDS011;52467;40.114;18.306;2023-04-03T13:01:56;5.40;;;1.75;;
42192;SDS011;52467;40.114;18.306;2023-04-03T13:04:26;7.70;;;2.40;;
42192;SDS011;52467;40.114;18.306;2023-04-03T13:06:54;6.30;;;1.50;;
42192;SDS011;52467;40.114;18.306;2023-04-03T13:09:26;10.65;;;1.42;;
42192;SDS011;52467;40.114;18.306;2023-04-03T13:12:02;7.07;;;1.63;;
42192;SDS011;52467;40.114;18.306;2023-04-03T13:14:37;5.00;;;1.38;;
42192;SDS011;52467;40.114;18.306;2023-04-03T13:17:15;8.63;;;1.73;;
42192;SDS011;52467;40.114;18.306;2023-04-03T13:19:43;6.78;;;1.70;;
42192;SDS011;52467;40.114;18.306;2023-04-03T13:22:27;9.80;;;1.87;;
42192;SDS011;52467;40.114;18.306;2023-04-03T13:24:58;5.88;;;1.25;;
42192;SDS011;52467;40.114;18.306;2023-04-03T13:27:29;9.02;;;1.40;;
42192;SDS011;52467;40.114;18.306;2023-04-03T13:29:58;8.07;;;1.20;;
42192;SDS011;52467;40.114;18.306;2023-04-03T13:32:28;7.85;;;1.27;;
42192;SDS011;52467;40.114;18.306;2023-04-03T13:34:57;8.07;;;1.55;;
42192;SDS011;52467;40.114;18.306;2023-04-03T13:37:29;9.63;;;1.45;;
42192;SDS011;52467;40.114;18.306;2023-04-03T13:42:28;8.45;;;1.17;;
42192;SDS011;52467;40.114;18.306;2023-04-03T13:47:47;6.50;;;1.23;;
42192;SDS011;52467;40.114;18.306;2023-04-03T13:50:17;5.80;;;1.25;;
42192;SDS011;52467;40.114;18.306;2023-04-03T13:52:52;8.50;;;1.20;;
42192;SDS011;52467;40.114;18.306;2023-04-03T13:55:23;8.25;;;1.70;;
42192;SDS011;52467;40.114;18.306;2023-04-03T13:58:02;11.38;;;1.73;;
42192;SDS011;52467;40.114;18.306;2023-04-03T14:00:52;4.65;;;1.08;;
42192;SDS011;52467;40.114;18.306;2023-04-03T14:03:43;4.60;;;1.02;;
42192;SDS011;52467;40.114;18.306;2023-04-03T14:06:31;7.00;;;1.40;;
42192;SDS011;52467;40.114;18.306;2023-04-03T14:08:59;4.63;;;1.07;;
42192;SDS011;52467;40.114;18.306;2023-04-03T14:11:28;5.47;;;1.25;;
42192;SDS011;52467;40.114;18.306;2023-04-03T14:13:58;5.28;;;1.10;;
42192;SDS011;52467;40.114;18.306;2023-04-03T14:16:35;2.47;;;0.90;;
42192;SDS011;52467;40.114;18.306;2023-04-03T14:19:06;6.82;;;1.35;;
42192;SDS011;52467;40.114;18.306;2023-04-03T14:21:34;3.83;;;0.90;;
42192;SDS011;52467;40.114;18.306;2023-04-03T14:24:01;3.25;;;1.02;;
42192;SDS011;52467;40.114;18.306;2023-04-03T14:26:28;3.90;;;0.80;;
42192;SDS011;52467;40.114;18.306;2023-04-03T14:28:57;4.53;;;1.20;;
42192;SDS011;52467;40.114;18.306;2023-04-03T14:31:24;9.48;;;1.60;;
42192;SDS011;52467;40.114;18.306;2023-04-03T14:33:52;6.03;;;1.55;;
42192;SDS011;52467;40.114;18.306;2023-04-03T14:36:20;6.57;;;1.48;;
42192;SDS011;52467;40.114;18.306;2023-04-03T14:38:49;4.97;;;0.93;;
42192;SDS011;52467;40.114;18.306;2023-04-03T14:41:18;3.47;;;0.98;;
42192;SDS011;52467;40.114;18.306;2023-04-03T14:43:47;2.88;;;0.90;;
42192;SDS011;52467;40.114;18.306;2023-04-03T14:46:20;4.88;;;1.00;;
42192;SDS011;52467;40.114;18.306;2023-04-03T14:49:00;2.93;;;0.90;;
42192;SDS011;52467;40.114;18.306;2023-04-03T14:51:28;2.58;;;0.63;;
42192;SDS011;52467;40.114;18.306;2023-04-03T14:53:56;4.33;;;0.90;;
42192;SDS011;52467;40.114;18.306;2023-04-03T14:56:25;3.15;;;1.25;;
42192;SDS011;52467;40.114;18.306;2023-04-03T14:58:58;4.45;;;1.67;;
42192;SDS011;52467;40.114;18.306;2023-04-03T15:01:28;6.53;;;1.45;;
42192;SDS011;52467;40.114;18.306;2023-04-03T15:03:55;5.80;;;2.23;;
42192;SDS011;52467;40.114;18.306;2023-04-03T15:06:22;5.03;;;2.70;;
42192;SDS011;52467;40.114;18.306;2023-04-03T15:08:50;5.38;;;2.55;;
42192;SDS011;52467;40.114;18.306;2023-04-03T15:11:17;5.57;;;1.40;;
42192;SDS011;52467;40.114;18.306;2023-04-03T15:13:45;6.82;;;1.13;;
42192;SDS011;52467;40.114;18.306;2023-04-03T15:16:16;2.10;;;0.95;;
42192;SDS011;52467;40.114;18.306;2023-04-03T15:18:45;4.43;;;1.30;;
42192;SDS011;52467;40.114;18.306;2023-04-03T15:21:13;4.27;;;1.57;;
42192;SDS011;52467;40.114;18.306;2023-04-03T15:23:40;3.17;;;1.30;;
42192;SDS011;52467;40.114;18.306;2023-04-03T15:26:10;4.50;;;1.48;;
42192;SDS011;52467;40.114;18.306;2023-04-03T15:28:38;2.20;;;1.30;;
42192;SDS011;52467;40.114;18.306;2023-04-03T15:31:06;4.07;;;2.07;;
42192;SDS011;52467;40.114;18.306;2023-04-03T15:33:34;2.88;;;1.60;;
42192;SDS011;52467;40.114;18.306;2023-04-03T15:36:02;2.95;;;1.65;;
42192;SDS011;52467;40.114;18.306;2023-04-03T15:38:31;4.05;;;1.75;;
42192;SDS011;52467;40.114;18.306;2023-04-03T15:40:59;5.07;;;1.73;;
42192;SDS011;52467;40.114;18.306;2023-04-03T15:43:26;6.10;;;1.98;;
42192;SDS011;52467;40.114;18.306;2023-04-03T15:45:56;5.18;;;2.30;;
42192;SDS011;52467;40.114;18.306;2023-04-03T15:48:24;4.22;;;2.50;;
42192;SDS011;52467;40.114;18.306;2023-04-03T15:50:51;3.13;;;1.70;;
42192;SDS011;52467;40.114;18.306;2023-04-03T15:53:19;5.28;;;1.77;;
42192;SDS011;52467;40.114;18.306;2023-04-03T15:55:46;3.92;;;2.00;;
42192;SDS011;52467;40.114;18.306;2023-04-03T15:58:13;3.70;;;1.90;;
42192;SDS011;52467;40.114;18.306;2023-04-03T16:00:41;5.40;;;2.35;;
42192;SDS011;52467;40.114;18.306;2023-04-03T16:03:10;5.60;;;2.05;;
42192;SDS011;52467;40.114;18.306;2023-04-03T16:05:39;4.55;;;2.40;;
42192;SDS011;52467;40.114;18.306;2023-04-03T16:08:07;3.97;;;1.92;;
42192;SDS011;52467;40.114;18.306;2023-04-03T16:10:35;4.55;;;2.60;;
42192;SDS011;52467;40.114;18.306;2023-04-03T16:13:03;6.03;;;2.72;;
42192;SDS011;52467;40.114;18.306;2023-04-03T16:15:31;4.70;;;2.53;;
42192;SDS011;52467;40.114;18.306;2023-04-03T16:18:00;5.50;;;2.67;;
42192;SDS011;52467;40.114;18.306;2023-04-03T16:20:27;6.07;;;3.03;;
42192;SDS011;52467;40.114;18.306;2023-04-03T16:22:56;6.85;;;3.40;;
42192;SDS011;52467;40.114;18.306;2023-04-03T16:25:24;5.55;;;3.70;;
42192;SDS011;52467;40.114;18.306;2023-04-03T16:27:51;5.67;;;3.90;;
42192;SDS011;52467;40.114;18.306;2023-04-03T16:30:19;5.88;;;4.10;;
42192;SDS011;52467;40.114;18.306;2023-04-03T16:32:47;8.18;;;4.65;;
42192;SDS011;52467;40.114;18.306;2023-04-03T16:35:14;9.10;;;5.00;;